1878 Depression NOT_NAMED (1878202N18087)


IBTrACS version v04r00. Visit IBTrACS website for data access.
Please direct all questions to the IBTrACS Q and A forum

Storm track - Intensity - Wind Radii - Intensity Data - Source Data - All data

Summary Information

Storm ID 1878202N18087
Start Jul 21 00Z
Landfall Jul 22 09Z
Max Intensity 30 kt (Jul 21 03Z)
End Jul 30 03Z
ATCF IDs
Track status Best track data.

Storm track plot

Map of storm track

Intensity plots

Map of storm track

Radial wind information

No radial wind information for this storm


Position and Intensity Table

BASIN ISO_TIME_________ NATURE LAT LON DS824 WIND
degrees north degrees east kts
NI 1878-07-21 00:00:00 TS 17.80 86.50 30
NI 03:00:00 TS 17.87 86.37 30
NI 06:00:00 TS 17.96 86.18 30
NI 09:00:00 TS 18.06 85.99 30
NI 12:00:00 TS 18.15 85.80 30
NI 15:00:00 TS 18.25 85.60 30
NI 18:00:00 TS 18.35 85.40 30
NI 21:00:00 TS 18.45 85.19 30
NI 1878-07-22 00:00:00 TS 18.55 84.99 30
NI 03:00:00 TS 18.65 84.82 30
NI 06:00:00 TS 18.75 84.67 30
NI 09:00:00 TS 18.84 84.52 30
NI 12:00:00 TS 18.95 84.37 30
NI 15:00:00 TS 19.07 84.23 30
NI 18:00:00 TS 19.21 84.09 30
NI 21:00:00 TS 19.32 83.96 30
NI 1878-07-23 00:00:00 TS 19.44 83.80 30
NI 03:00:00 TS 19.58 83.57 30
NI 06:00:00 TS 19.71 83.26 30
NI 09:00:00 TS 19.82 82.93 30
NI 12:00:00 TS 19.93 82.57 30
NI 15:00:00 TS 20.10 82.19 30
NI 18:00:00 TS 20.28 81.82 30
NI 21:00:00 TS 20.43 81.52 30
NI 1878-07-24 00:00:00 TS 20.54 81.31 30
NI 03:00:00 TS 20.61 81.18 30
NI 06:00:00 TS 20.62 81.16 30
NI 09:00:00 TS 20.62 81.15 30
NI 12:00:00 TS 20.61 81.18 30
NI 15:00:00 TS 20.60 81.20 30
NI 18:00:00 TS 20.60 81.20 30
NI 21:00:00 TS 20.60 81.20 30
NI 1878-07-25 00:00:00 TS 20.60 81.20 30
NI 03:00:00 TS 20.60 81.20 30
NI 06:00:00 TS 20.60 81.20 30
NI 09:00:00 TS 20.60 81.20 30
NI 12:00:00 TS 20.60 81.20 30
NI 15:00:00 TS 20.60 81.20 30
NI 18:00:00 TS 20.60 81.20 30
NI 21:00:00 TS 20.60 81.20 30
NI 1878-07-26 00:00:00 TS 20.60 81.20 30
NI 03:00:00 TS 20.60 81.20 30
NI 06:00:00 TS 20.60 81.20 30
NI 09:00:00 TS 20.60 81.20 30
NI 12:00:00 TS 20.60 81.20 30
NI 15:00:00 TS 20.60 81.20 30
NI 18:00:00 TS 20.55 81.21 30
NI 21:00:00 TS 20.46 81.22 30
NI 1878-07-27 00:00:00 TS 20.50 81.21 30
NI 03:00:00 TS 20.79 81.16 30
NI 06:00:00 TS 21.36 81.09 30
NI 09:00:00 TS 22.13 81.04 30
NI 12:00:00 TS 22.94 80.91 30
NI 15:00:00 TS 23.62 80.66 30
NI 18:00:00 TS 24.13 80.27 30
NI 21:00:00 TS 24.55 79.75 30
NI 1878-07-28 00:00:00 TS 24.86 79.17 30
NI 03:00:00 TS 25.07 78.64 30
NI 06:00:00 TS 25.19 78.15 30
NI 09:00:00 TS 25.26 77.66 30
NI 12:00:00 TS 25.29 77.15 30
NI 15:00:00 TS 25.32 76.62 30
NI 18:00:00 TS 25.38 76.09 30
NI 21:00:00 TS 25.46 75.57 30
NI 1878-07-29 00:00:00 TS 25.56 75.06 30
NI 03:00:00 TS 25.65 74.55 30
NI 06:00:00 TS 25.75 74.05 30
NI 09:00:00 TS 25.88 73.55 30
NI 12:00:00 TS 26.03 73.05 30
NI 15:00:00 TS 26.17 72.55 30
NI 18:00:00 TS 26.31 72.09 30
NI 21:00:00 TS 26.46 71.60 30
NI 1878-07-30 00:00:00 TS 26.60 71.14 30
NI 03:00:00 NR 26.70 70.80

Source Information

Agency Information
USA
TOKYO
CMA
HKO
NEWDELHI
REUNION
BOM
NADI
WELLINGTON
DS824 n_ind.dat:10:NOT NAMED
TD9636 cons_worldwide_trop_cyclone_18710101-19891231-004:Line=105
TD9635
NEUMANN
MLC

All available IBTrACS Data

SEASON BASIN SUBBASIN ISO_TIME_________ NATURE LAT LON DIST2LAND LANDFALL IFLAG USA SSHS DS824 LAT DS824 LON DS824 STAGE DS824 WIND TD9636 LAT TD9636 LON TD9636 STAGE STORM SPEED STORM DIR
Year degrees north degrees east km km 1 degrees north degrees east kts degrees north degrees east kts degrees
1878 NI BB 1878-07-21 00:00:00 TS 17.80 86.50 229 215 _________O____ -1 17.80 86.50 TC 30 3 298
1878 NI BB 03:00:00 TS 17.87 86.37 215 191 _________PO___ -1 17.90 86.30 TC 30 17.80 86.50 1 3 298
1878 NI BB 06:00:00 TS 17.96 86.18 191 167 _________OP___ -1 18.00 86.10 TC 30 17.90 86.30 1 4 298
1878 NI BB 09:00:00 TS 18.06 85.99 167 148 _________PP___ -1 18.10 85.90 TC 30 18.00 86.11 1 4 298
1878 NI BB 12:00:00 TS 18.15 85.80 143 125 _________OP___ -1 18.20 85.70 TC 30 18.10 85.90 1 4 298
1878 NI BB 15:00:00 TS 18.25 85.60 125 101 _________PO___ -1 18.30 85.50 TC 30 18.20 85.70 1 4 297
1878 NI BB 18:00:00 TS 18.35 85.40 95 77 _________OP___ -1 18.40 85.30 TC 30 18.30 85.49 1 4 297
1878 NI BB 21:00:00 TS 18.45 85.19 71 53 _________PP___ -1 18.50 85.09 TC 30 18.40 85.28 1 4 298
1878 NI BB 1878-07-22 00:00:00 TS 18.55 84.99 47 30 _________OP___ -1 18.60 84.90 TC 30 18.50 85.09 1 4 300
1878 NI BB 03:00:00 TS 18.65 84.82 30 15 _________PO___ -1 18.70 84.74 TC 30 18.60 84.90 1 4 303
1878 NI BB 06:00:00 TS 18.75 84.67 15 0 _________OP___ -1 18.80 84.60 TC 30 18.70 84.74 1 3 304
1878 NI BB 09:00:00 TS 18.84 84.52 0 0 _________PP___ -1 18.89 84.45 TC 30 18.79 84.58 1 3 305
1878 NI BB 12:00:00 TS 18.95 84.37 0 0 _________OP___ -1 19.00 84.30 TC 30 18.89 84.44 1 4 310
1878 NI BB 15:00:00 TS 19.07 84.23 0 0 _________PO___ -1 19.15 84.15 TC 30 19.00 84.30 1 4 315
1878 NI BB 18:00:00 TS 19.21 84.09 0 0 _________OP___ -1 19.30 84.00 TC 30 19.12 84.18 1 4 315
1878 NI BB 21:00:00 TS 19.32 83.96 0 0 _________PP___ -1 19.40 83.87 TC 30 19.24 84.05 1 4 310
1878 NI BB 1878-07-23 00:00:00 TS 19.44 83.80 0 0 _________OP___ -1 19.50 83.70 TC 30 19.37 83.90 1 5 304
1878 NI BB 03:00:00 TS 19.58 83.57 0 0 _________PO___ -1 19.65 83.43 TC 30 19.50 83.70 1 6 298
1878 NI BB 06:00:00 TS 19.71 83.26 0 0 _________OP___ -1 19.80 83.10 TC 30 19.62 83.42 1 6 292
1878 NI BB 09:00:00 TS 19.82 82.93 0 0 _________PP___ -1 19.89 82.76 TC 30 19.74 83.09 1 7 289
1878 NI BB 12:00:00 TS 19.93 82.57 0 0 _________OP___ -1 20.00 82.40 TC 30 19.87 82.75 1 8 292
1878 NI BB 15:00:00 TS 20.10 82.19 0 0 _________PO___ -1 20.20 81.98 TC 30 20.00 82.40 1 8 296
1878 NI BB 18:00:00 TS 20.28 81.82 0 0 _________OP___ -1 20.40 81.60 TC 30 20.17 82.04 1 7 298
1878 NI BB 21:00:00 TS 20.43 81.52 0 0 _________PP___ -1 20.53 81.34 TC 30 20.34 81.70 1 6 298
1878 NI BB 1878-07-24 00:00:00 TS 20.54 81.31 0 0 _________OP___ -1 20.60 81.20 TC 30 20.49 81.41 1 4 299
1878 NI BB 03:00:00 TS 20.61 81.18 0 0 _________PO___ -1 20.61 81.17 TC 30 20.60 81.20 1 2 299
1878 NI BB 06:00:00 TS 20.62 81.16 0 0 _________OP___ -1 20.60 81.20 TC 30 20.64 81.11 1 0 292
1878 NI BB 09:00:00 TS 20.62 81.15 0 0 _________PP___ -1 20.60 81.20 TC 30 20.64 81.11 1 0 0
1878 NI BB 12:00:00 TS 20.61 81.18 0 0 _________OP___ -1 20.60 81.20 TC 30 20.62 81.15 1 0 124
1878 NI BB 15:00:00 TS 20.60 81.20 0 0 _________PO___ -1 20.60 81.20 TC 30 20.60 81.20 1 0 0
1878 NI BB 18:00:00 TS 20.60 81.20 0 0 _________OP___ -1 20.60 81.20 TC 30 20.60 81.20 1 0 0
1878 NI BB 21:00:00 TS 20.60 81.20 0 0 _________PP___ -1 20.60 81.20 TC 30 20.60 81.20 1 0 0
1878 NI BB 1878-07-25 00:00:00 TS 20.60 81.20 0 0 _________OP___ -1 20.60 81.20 TC 30 20.60 81.20 1 0 0
1878 NI BB 03:00:00 TS 20.60 81.20 0 0 _________PO___ -1 20.60 81.20 TC 30 20.60 81.20 1 0 0
1878 NI BB 06:00:00 TS 20.60 81.20 0 0 _________OP___ -1 20.60 81.20 TC 30 20.60 81.20 1 0 0
1878 NI BB 09:00:00 TS 20.60 81.20 0 0 _________PP___ -1 20.60 81.20 TC 30 20.60 81.20 1 0 0
1878 NI BB 12:00:00 TS 20.60 81.20 0 0 _________OP___ -1 20.60 81.20 TC 30 20.60 81.20 1 0 0
1878 NI BB 15:00:00 TS 20.60 81.20 0 0 _________PO___ -1 20.60 81.20 TC 30 20.60 81.20 1 0 0
1878 NI BB 18:00:00 TS 20.60 81.20 0 0 _________OP___ -1 20.60 81.20 TC 30 20.60 81.20 1 0 0
1878 NI BB 21:00:00 TS 20.60 81.20 0 0 _________PP___ -1 20.60 81.20 TC 30 20.60 81.20 1 0 0
1878 NI BB 1878-07-26 00:00:00 TS 20.60 81.20 0 0 _________OP___ -1 20.60 81.20 TC 30 20.60 81.20 1 0 0
1878 NI BB 03:00:00 TS 20.60 81.20 0 0 _________PO___ -1 20.60 81.20 TC 30 20.60 81.20 1 0 0
1878 NI BB 06:00:00 TS 20.60 81.20 0 0 _________OP___ -1 20.60 81.20 TC 30 20.60 81.20 1 0 0
1878 NI BB 09:00:00 TS 20.60 81.20 0 0 _________PP___ -1 20.60 81.20 TC 30 20.60 81.20 1 0 0
1878 NI BB 12:00:00 TS 20.60 81.20 0 0 _________OP___ -1 20.60 81.20 TC 30 20.60 81.20 1 0 0
1878 NI BB 15:00:00 TS 20.60 81.20 0 0 _________PO___ -1 20.60 81.20 TC 30 20.60 81.20 1 1 169
1878 NI BB 18:00:00 TS 20.55 81.21 0 0 _________OP___ -1 20.60 81.20 TC 30 20.49 81.22 1 1 0
1878 NI BB 21:00:00 TS 20.46 81.22 0 0 _________PP___ -1 20.52 81.21 TC 30 20.40 81.23 1 0 0
1878 NI BB 1878-07-27 00:00:00 TS 20.50 81.21 0 0 _________OP___ -1 20.60 81.20 TC 30 20.41 81.23 1 3 351
1878 NI BB 03:00:00 TS 20.79 81.16 0 0 _________PO___ -1 20.97 81.11 TC 30 20.60 81.20 1 9 352
1878 NI BB 06:00:00 TS 21.36 81.09 0 0 _________OP___ -1 21.60 81.00 TC 30 21.12 81.19 1 14 355
1878 NI BB 09:00:00 TS 22.13 81.04 0 0 _________PP___ -1 22.44 80.94 TC 30 21.82 81.14 1 16 354
1878 NI BB 12:00:00 TS 22.94 80.91 0 0 _________OP___ -1 23.30 80.80 TC 30 22.59 81.02 1 15 347
1878 NI BB 15:00:00 TS 23.62 80.66 0 0 _________PO___ -1 23.93 80.53 TC 30 23.30 80.80 1 13 334
1878 NI BB 18:00:00 TS 24.13 80.27 0 0 _________OP___ -1 24.40 80.10 TC 30 23.85 80.44 1 13 318
1878 NI BB 21:00:00 TS 24.55 79.75 0 0 _________PP___ -1 24.77 79.52 TC 30 24.33 79.97 1 12 306
1878 NI BB 1878-07-28 00:00:00 TS 24.86 79.17 0 0 _________OP___ -1 25.00 78.90 TC 30 24.72 79.44 1 11 297
1878 NI BB 03:00:00 TS 25.07 78.64 0 0 _________PO___ -1 25.14 78.38 TC 30 25.00 78.90 1 10 290
1878 NI BB 06:00:00 TS 25.19 78.15 0 0 _________OP___ -1 25.20 77.90 TC 30 25.18 78.41 1 9 282
1878 NI AS 09:00:00 TS 25.26 77.66 0 0 _________PP___ -1 25.26 77.41 TC 30 25.25 77.91 1 9 277
1878 NI AS 12:00:00 TS 25.29 77.15 0 0 _________OP___ -1 25.30 76.90 TC 30 25.28 77.41 1 9 274
1878 NI AS 15:00:00 TS 25.32 76.62 0 0 _________PO___ -1 25.34 76.35 TC 30 25.30 76.90 1 10 275
1878 NI AS 18:00:00 TS 25.38 76.09 0 0 _________OP___ -1 25.40 75.80 TC 30 25.37 76.38 1 10 278
1878 NI AS 21:00:00 TS 25.46 75.57 0 0 _________PP___ -1 25.49 75.29 TC 30 25.43 75.85 1 9 280
1878 NI AS 1878-07-29 00:00:00 TS 25.56 75.06 0 0 _________OP___ -1 25.60 74.80 TC 30 25.51 75.32 1 9 281
1878 NI AS 03:00:00 TS 25.65 74.55 0 0 _________PO___ -1 25.69 74.30 TC 30 25.60 74.80 1 9 282
1878 NI AS 06:00:00 TS 25.75 74.05 0 0 _________OP___ -1 25.80 73.80 TC 30 25.71 74.29 1 9 285
1878 NI AS 09:00:00 TS 25.88 73.55 0 0 _________PP___ -1 25.94 73.30 TC 30 25.83 73.79 1 9 287
1878 NI AS 12:00:00 TS 26.03 73.05 0 0 _________OP___ -1 26.10 72.80 TC 30 25.96 73.30 1 9 288
1878 NI AS 15:00:00 TS 26.17 72.55 0 0 _________PO___ -1 26.25 72.30 TC 30 26.10 72.80 1 9 288
1878 NI AS 18:00:00 TS 26.31 72.09 0 0 _________OP___ -1 26.40 71.80 TC 30 26.25 72.30 1 9 288
1878 NI AS 21:00:00 TS 26.46 71.60 0 0 _________PP___ -1 26.55 71.30 TC 30 26.40 71.80 1 9 289
1878 NI AS 1878-07-30 00:00:00 TS 26.60 71.14 0 0 _________OP___ -1 26.70 70.80 TC 30 26.55 71.30 1 8 289
1878 NI AS 03:00:00 NR 26.70 70.80 0 __________O___ -1 TC 26.70 70.80 1 6 289